Time;durP1;ratioP1;P1;durP2;ratioP2;P2;SDS_P1;SDS_P2;PMS_P1;PMS_P2;Temp;Humidity;BMP_temperature;BMP_pressure;BME280_temperature;BME280_humidity;BME280_pressure;Samples;Min_cycle;Max_cycle;Signal;HPM_P1;HPM_P2
2023/06/10 00:01:42;;;;;;;9.45;4.35;;;;;;;17.36;83.81;93580.31;5003333;28;20232;-79
2023/06/10 00:04:08;;;;;;;10.05;4.88;;;;;;;17.39;85.00;93584.19;5003532;28;20045;-80
2023/06/10 00:06:37;;;;;;;12.13;5.05;;;;;;;17.40;85.46;93591.13;5003412;28;20037;-80
2023/06/10 00:09:10;;;;;;;10.07;5.03;;;;;;;17.38;86.00;93588.81;5003526;28;20033;-80
2023/06/10 00:11:36;;;;;;;9.05;4.78;;;;;;;17.36;85.09;93585.72;5003109;28;20046;-79
2023/06/10 00:14:03;;;;;;;10.07;4.95;;;;;;;17.33;84.83;93583.72;5003370;28;20057;-80
2023/06/10 00:16:28;;;;;;;12.93;5.85;;;;;;;17.29;84.32;93585.59;5003412;28;20019;-80
2023/06/10 00:18:55;;;;;;;10.90;4.97;;;;;;;17.31;84.89;93582.53;5003386;28;20045;-80
2023/06/10 00:21:21;;;;;;;8.23;5.13;;;;;;;17.34;85.34;93581.81;5003132;28;20025;-80
2023/06/10 00:23:47;;;;;;;12.38;6.10;;;;;;;17.30;84.89;93581.78;5003329;28;20393;-80
2023/06/10 00:26:13;;;;;;;14.30;5.35;;;;;;;17.25;84.78;93584.75;5003013;28;20049;-80
2023/06/10 00:28:38;;;;;;;7.57;5.00;;;;;;;17.13;85.00;93580.34;4985879;28;20030;-80
2023/06/10 00:31:04;;;;;;;11.30;5.75;;;;;;;17.09;85.49;93589.50;5002973;28;20081;-79
2023/06/10 00:33:30;;;;;;;9.77;5.65;;;;;;;17.00;86.12;93584.38;5003204;28;20026;-79
2023/06/10 00:35:56;;;;;;;9.80;6.18;;;;;;;16.99;86.67;93591.66;5003350;28;20089;-79
2023/06/10 00:38:21;;;;;;;9.43;6.30;;;;;;;16.97;86.40;93580.47;5003101;28;20034;-80
2023/06/10 00:40:47;;;;;;;18.02;7.05;;;;;;;16.95;86.99;93582.75;5002965;28;20038;-80
2023/06/10 00:43:12;;;;;;;13.40;8.05;;;;;;;16.95;87.22;93581.97;5003005;28;20022;-80
2023/06/10 00:45:38;;;;;;;19.40;8.00;;;;;;;16.98;87.63;93587.41;5003025;28;20030;-79
2023/06/10 00:48:04;;;;;;;12.73;7.68;;;;;;;17.01;87.37;93584.00;5003007;28;20024;-81
2023/06/10 00:50:30;;;;;;;15.13;7.50;;;;;;;16.99;87.24;93582.81;5002852;28;20018;-81
2023/06/10 00:52:56;;;;;;;14.35;8.23;;;;;;;17.01;87.88;93581.28;5002485;28;20374;-81
2023/06/10 00:55:23;;;;;;;13.82;8.90;;;;;;;17.03;87.63;93587.09;5001819;28;20026;-81
2023/06/10 00:57:49;;;;;;;17.92;9.10;;;;;;;16.98;87.47;93584.72;4985440;28;20022;-81
2023/06/10 01:00:15;;;;;;;16.02;9.07;;;;;;;16.96;87.79;93578.91;5002692;28;20019;-81
2023/06/10 01:02:41;;;;;;;17.23;9.57;;;;;;;17.00;88.59;93589.75;5002718;28;20048;-81
2023/06/10 01:05:08;;;;;;;13.57;8.55;;;;;;;16.98;88.40;93584.72;5002881;28;20088;-81
2023/06/10 01:07:47;;;;;;;15.13;8.73;;;;;;;16.97;88.21;93585.06;5002699;28;20030;-81
2023/06/10 01:10:33;;;;;;;16.52;8.63;;;;;;;16.98;88.33;93587.41;4987711;28;20243;-80
2023/06/10 01:13:02;;;;;;;12.95;8.00;;;;;;;17.02;88.68;93590.19;5006212;28;20046;-81
2023/06/10 01:15:30;;;;;;;13.20;8.05;;;;;;;16.99;87.97;93588.97;4988770;28;20014;-81
2023/06/10 01:18:01;;;;;;;12.73;8.07;;;;;;;17.02;88.12;93590.19;5006465;28;20018;-81
2023/06/10 01:20:28;;;;;;;15.82;9.35;;;;;;;17.04;87.51;93595.97;5006295;28;20102;-81
2023/06/10 01:22:57;;;;;;;13.27;7.70;;;;;;;17.04;87.63;93596.75;5006152;28;20102;-79
2023/06/10 01:25:27;;;;;;;14.63;8.50;;;;;;;17.02;88.00;93593.63;5006117;28;20019;-80
2023/06/10 01:27:58;;;;;;;13.40;7.05;;;;;;;17.02;88.35;93593.63;5006124;28;20375;-80
2023/06/10 01:30:29;;;;;;;16.50;7.43;;;;;;;17.01;87.63;93592.06;4988832;28;20022;-81
2023/06/10 01:32:58;;;;;;;12.15;6.63;;;;;;;16.96;87.68;93594.31;5005994;28;20026;-81
2023/06/10 01:35:26;;;;;;;13.75;6.38;;;;;;;16.97;87.46;93588.53;5006003;28;20070;-79
2023/06/10 01:37:54;;;;;;;11.57;7.30;;;;;;;16.98;87.45;93592.81;4988331;28;20030;-80
2023/06/10 01:40:20;;;;;;;9.60;6.32;;;;;;;16.99;87.44;93588.97;5005694;28;20057;-79
2023/06/10 01:42:46;;;;;;;12.05;6.72;;;;;;;17.00;87.25;93587.84;5005789;28;20030;-81
2023/06/10 01:45:11;;;;;;;13.57;6.18;;;;;;;17.03;87.32;93589.78;5005612;28;20420;-81
2023/06/10 01:47:37;;;;;;;13.00;6.43;;;;;;;17.08;87.35;93587.97;5005451;28;20362;-81
2023/06/10 01:50:02;;;;;;;12.20;6.45;;;;;;;17.11;87.28;93585.31;5005560;28;20022;-80
2023/06/10 01:52:28;;;;;;;14.32;6.78;;;;;;;17.09;87.14;93582.19;5005569;28;20061;-80
2023/06/10 01:54:53;;;;;;;12.10;7.75;;;;;;;17.10;87.38;93591.06;4988237;28;20026;-79
2023/06/10 01:57:19;;;;;;;12.70;6.65;;;;;;;17.07;87.13;93581.00;5005361;28;20026;-80
2023/06/10 01:59:46;;;;;;;11.82;7.22;;;;;;;17.07;87.27;93572.94;5005274;28;20026;-79
2023/06/10 02:02:11;;;;;;;11.77;7.47;;;;;;;17.12;87.43;93583.41;5005353;28;20044;-80
2023/06/10 02:04:37;;;;;;;17.50;6.22;;;;;;;17.16;87.40;93574.25;5005261;28;20030;-79
2023/06/10 02:07:04;;;;;;;13.35;6.80;;;;;;;17.19;87.23;93570.03;5004838;28;20026;-80
2023/06/10 02:09:30;;;;;;;13.93;7.60;;;;;;;17.24;87.28;93567.06;4987640;28;20026;-80
2023/06/10 02:11:56;;;;;;;11.95;7.22;;;;;;;17.27;87.40;93569.00;5005208;28;20046;-80
2023/06/10 02:14:21;;;;;;;11.40;6.65;;;;;;;17.31;87.59;93567.16;5005238;28;20034;-80
2023/06/10 02:16:47;;;;;;;9.63;6.28;;;;;;;17.29;87.94;93569.44;5004942;28;20332;-80
2023/06/10 02:19:13;;;;;;;11.80;6.75;;;;;;;17.31;87.43;93559.06;5004840;28;20036;-78
2023/06/10 02:21:39;;;;;;;7.72;5.60;;;;;;;17.32;87.24;93562.53;5004556;28;20046;-81
2023/06/10 02:24:05;;;;;;;8.77;6.50;;;;;;;17.37;86.88;93554.91;5005070;28;20023;-81
2023/06/10 02:26:31;;;;;;;8.57;5.85;;;;;;;17.37;86.68;93554.91;4987473;28;20068;-80
2023/06/10 02:28:57;;;;;;;13.35;5.70;;;;;;;17.31;85.03;93551.00;5004830;28;20275;-80
2023/06/10 02:31:24;;;;;;;14.65;5.72;;;;;;;17.27;84.79;93547.47;5004776;28;20022;-80
2023/06/10 02:33:49;;;;;;;10.40;5.63;;;;;;;17.29;84.92;93549.81;5004846;28;20018;-80
2023/06/10 02:36:15;;;;;;;9.13;5.60;;;;;;;17.26;84.18;93540.53;5004740;28;20018;-80
2023/06/10 02:38:41;;;;;;;7.20;5.03;;;;;;;17.29;84.57;93549.81;4987195;28;20089;-86
2023/06/10 02:41:07;;;;;;;11.40;5.40;;;;;;;17.30;85.94;93548.66;5004683;28;20026;-86
2023/06/10 02:43:32;;;;;;;7.35;4.45;;;;;;;17.29;84.64;93552.50;5004614;28;20022;-83
2023/06/10 02:45:57;;;;;;;7.97;4.78;;;;;;;17.31;84.43;93548.28;5004442;28;20363;-82
2023/06/10 02:48:27;;;;;;;10.18;4.50;;;;;;;17.34;84.18;93539.50;4987278;28;20022;-83
2023/06/10 02:50:53;;;;;;;7.85;3.80;;;;;;;17.35;84.15;93541.03;5004560;28;20014;-80
2023/06/10 02:53:18;;;;;;;7.20;4.43;;;;;;;17.39;84.14;93536.47;5004251;28;20219;-81
2023/06/10 02:55:44;;;;;;;9.13;4.13;;;;;;;17.44;84.34;93538.06;5004239;28;20117;-81
2023/06/10 02:58:09;;;;;;;8.05;4.65;;;;;;;17.45;84.58;93532.31;5004094;28;20041;-81
2023/06/10 03:00:35;;;;;;;7.75;4.43;;;;;;;17.47;84.54;93540.06;5004107;28;20026;-80
2023/06/10 03:03:03;;;;;;;6.78;4.20;;;;;;;17.51;84.96;93545.50;5004345;28;20201;-80
2023/06/10 03:05:29;;;;;;;8.45;4.05;;;;;;;17.51;84.86;93542.81;4986781;28;20030;-78
2023/06/10 03:07:55;;;;;;;9.27;3.80;;;;;;;17.48;84.86;93535.44;5004144;28;20227;-78
2023/06/10 03:10:20;;;;;;;5.20;3.55;;;;;;;17.44;84.02;93546.94;5003965;28;20026;-77
2023/06/10 03:12:46;;;;;;;10.45;3.83;;;;;;;17.41;84.17;93550.38;5004036;28;20049;-79
2023/06/10 03:15:12;;;;;;;5.55;4.20;;;;;;;17.44;84.20;93548.84;5004036;28;20033;-79
2023/06/10 03:17:37;;;;;;;9.68;4.15;;;;;;;17.45;85.10;93548.50;5003795;28;20092;-80
2023/06/10 03:20:05;;;;;;;6.82;4.28;;;;;;;17.48;85.87;93549.69;5003893;28;20034;-80
2023/06/10 03:22:31;;;;;;;4.53;3.25;;;;;;;17.50;84.61;93554.72;5003917;28;20045;-80
2023/06/10 03:24:57;;;;;;;6.72;3.92;;;;;;;17.48;84.11;93555.06;5004013;28;20054;-80
2023/06/10 03:27:22;;;;;;;7.88;3.80;;;;;;;17.47;84.47;93552.75;5003913;28;20056;-80
2023/06/10 03:29:48;;;;;;;4.82;3.58;;;;;;;17.47;85.00;93560.84;4986343;28;20022;-80
2023/06/10 03:32:14;;;;;;;8.80;4.00;;;;;;;17.49;84.50;93566.63;5003066;28;20324;-80
2023/06/10 03:34:40;;;;;;;14.38;4.30;;;;;;;17.49;85.11;93570.09;5003697;28;20022;-80
2023/06/10 03:37:06;;;;;;;6.05;3.30;;;;;;;17.38;84.63;93569.97;5003620;28;20055;-80
2023/06/10 03:39:32;;;;;;;10.73;3.63;;;;;;;17.31;85.83;93577.91;5003483;28;20029;-80
2023/06/10 03:41:58;;;;;;;10.00;4.05;;;;;;;17.26;86.42;93580.94;5003666;28;20026;-80
2023/06/10 03:44:25;;;;;;;11.77;4.47;;;;;;;17.23;86.91;93576.25;5003754;28;20037;-80
2023/06/10 03:46:51;;;;;;;8.77;4.70;;;;;;;17.20;87.26;93577.00;5003307;28;20026;-80
2023/06/10 03:49:17;;;;;;;9.50;4.60;;;;;;;17.19;86.83;93573.50;5003545;28;20031;-80
2023/06/10 03:51:43;;;;;;;14.50;5.45;;;;;;;17.16;86.79;93573.47;5003594;28;20041;-79
2023/06/10 03:54:08;;;;;;;11.73;5.00;;;;;;;17.06;86.95;93569.47;5003488;28;20026;-79
2023/06/10 03:56:35;;;;;;;14.27;4.95;;;;;;;17.00;87.55;93570.91;5003357;28;20320;-80
2023/06/10 03:59:00;;;;;;;9.10;4.75;;;;;;;16.99;87.79;93569.34;5002989;28;20193;-79
2023/06/10 04:01:26;;;;;;;7.82;5.07;;;;;;;16.95;87.96;93566.59;5003483;28;20094;-79
2023/06/10 04:03:53;;;;;;;8.07;5.18;;;;;;;16.95;88.36;93561.19;5003451;28;20312;-79
2023/06/10 04:06:19;;;;;;;9.40;4.95;;;;;;;16.94;88.04;93562.34;5003300;28;20034;-79
2023/06/10 04:08:45;;;;;;;9.07;5.20;;;;;;;16.97;88.10;93567.00;5003113;28;20034;-78
2023/06/10 04:11:10;;;;;;;8.68;5.10;;;;;;;17.01;88.58;93564.38;5002974;28;20061;-78
2023/06/10 04:13:36;;;;;;;11.10;5.03;;;;;;;17.04;88.01;93559.06;5003056;28;20093;-78
2023/06/10 04:16:04;;;;;;;9.07;5.65;;;;;;;17.08;87.31;93561.03;5003153;28;20026;-79
2023/06/10 04:18:32;;;;;;;13.77;5.70;;;;;;;17.13;87.77;93566.09;5003107;28;20064;-81
2023/06/10 04:20:57;;;;;;;12.77;5.20;;;;;;;17.20;87.57;93577.00;5003091;28;20030;-78
2023/06/10 04:23:23;;;;;;;9.25;5.55;;;;;;;17.28;87.56;93578.66;5003253;28;20113;-80
2023/06/10 04:25:48;;;;;;;10.88;5.22;;;;;;;17.33;87.14;93578.34;5003140;28;20036;-80
2023/06/10 04:28:14;;;;;;;8.88;5.80;;;;;;;17.42;86.21;93573.47;5003266;28;20041;-83
2023/06/10 04:30:39;;;;;;;9.07;6.60;;;;;;;17.49;87.00;93580.13;5002956;28;20026;-83
2023/06/10 04:33:06;;;;;;;13.85;7.25;;;;;;;17.55;86.04;93581.34;5003247;28;20041;-83
2023/06/10 04:35:32;;;;;;;9.93;6.25;;;;;;;17.59;86.03;93582.19;5003072;28;20053;-83
2023/06/10 04:37:58;;;;;;;9.27;6.45;;;;;;;17.67;86.33;93575.75;4985727;28;20033;-83
2023/06/10 04:40:23;;;;;;;9.77;6.15;;;;;;;17.78;86.66;93576.66;5003132;28;20022;-83
2023/06/10 04:42:49;;;;;;;10.55;6.80;;;;;;;17.89;86.99;93576.03;4986195;28;20045;-83
2023/06/10 04:45:14;;;;;;;11.73;6.68;;;;;;;17.99;87.04;93572.69;5007049;28;20041;-83
2023/06/10 04:47:40;;;;;;;14.25;6.65;;;;;;;18.09;86.01;93577.44;5006619;28;20105;-84
2023/06/10 04:50:06;;;;;;;11.27;7.68;;;;;;;18.15;85.68;93575.97;5006655;28;20018;-84
2023/06/10 04:52:33;;;;;;;12.07;7.80;;;;;;;18.21;85.38;93571.81;5006780;28;20031;-83
2023/06/10 04:54:59;;;;;;;12.77;8.27;;;;;;;18.29;84.60;93574.59;5006624;28;20034;-83
2023/06/10 04:57:24;;;;;;;15.32;8.35;;;;;;;18.35;84.56;93573.13;5006774;28;20201;-81
2023/06/10 04:59:50;;;;;;;13.63;9.00;;;;;;;18.44;84.86;93570.91;4989231;28;20030;-81
2023/06/10 05:02:15;;;;;;;11.43;7.43;;;;;;;18.48;85.07;93576.34;5006488;28;20030;-81
2023/06/10 05:04:41;;;;;;;11.35;7.35;;;;;;;18.52;84.88;93572.56;5006332;28;20030;-81
2023/06/10 05:07:06;;;;;;;10.35;7.97;;;;;;;18.56;84.81;93567.97;5006349;28;20031;-81
2023/06/10 05:09:32;;;;;;;13.10;7.85;;;;;;;18.52;83.04;93577.94;5006200;28;20102;-83
2023/06/10 05:11:58;;;;;;;15.07;7.55;;;;;;;18.48;83.26;93581.72;5006160;28;20061;-82
2023/06/10 05:14:23;;;;;;;18.02;8.30;;;;;;;18.48;83.53;93577.13;5006433;28;20069;-82
2023/06/10 05:16:49;;;;;;;13.55;7.25;;;;;;;18.49;84.20;93573.28;5006331;28;20037;-79
2023/06/10 05:19:16;;;;;;;15.10;8.10;;;;;;;18.49;83.67;93573.28;5006168;28;20022;-82
2023/06/10 05:21:41;;;;;;;13.27;8.35;;;;;;;18.50;83.28;93576.75;5006116;28;20050;-82
2023/06/10 05:24:07;;;;;;;22.45;9.02;;;;;;;18.51;83.88;93564.81;5006092;28;20094;-82
2023/06/10 05:26:36;;;;;;;15.60;9.15;;;;;;;18.51;83.77;93575.63;5006049;28;20101;-83
2023/06/10 05:29:02;;;;;;;14.55;8.07;;;;;;;18.50;83.50;93574.84;5006025;28;20383;-82
2023/06/10 05:31:31;;;;;;;11.00;7.95;;;;;;;18.51;83.46;93576.38;5005894;28;20030;-79
2023/06/10 05:33:56;;;;;;;12.90;8.60;;;;;;;18.52;82.86;93577.94;4988445;28;20037;-82
2023/06/10 05:36:22;;;;;;;20.38;9.70;;;;;;;18.44;84.54;93573.63;5005722;28;20018;-82
2023/06/10 05:38:48;;;;;;;16.25;8.25;;;;;;;18.45;84.51;93578.63;5005695;28;20081;-80
2023/06/10 05:41:13;;;;;;;13.82;9.50;;;;;;;18.45;84.96;93573.22;4988359;28;20038;-81
2023/06/10 05:43:39;;;;;;;15.93;9.18;;;;;;;18.51;83.98;93576.38;5005495;28;20189;-78
2023/06/10 05:46:05;;;;;;;15.77;9.50;;;;;;;18.51;84.28;93581.78;5005468;28;20029;-79
2023/06/10 05:48:30;;;;;;;16.58;8.68;;;;;;;18.57;84.14;93587.63;5005658;28;20252;-79
2023/06/10 05:50:56;;;;;;;17.38;9.75;;;;;;;18.60;84.08;93590.38;5005585;28;20045;-79
2023/06/10 05:53:22;;;;;;;15.18;8.50;;;;;;;18.61;83.20;93586.50;5005483;28;20026;-79
2023/06/10 05:55:47;;;;;;;13.27;8.65;;;;;;;18.67;83.43;93584.25;5004380;28;20087;-80
2023/06/10 05:58:14;;;;;;;14.68;8.23;;;;;;;18.66;83.71;93582.69;5005002;28;20022;-80
2023/06/10 06:00:40;;;;;;;16.27;8.95;;;;;;;18.71;83.81;93589.69;5005214;28;20026;-79
2023/06/10 06:03:10;;;;;;;19.90;8.15;;;;;;;18.73;82.75;93595.50;5005396;28;20030;-80
2023/06/10 06:05:38;;;;;;;17.70;8.35;;;;;;;18.67;82.88;93591.59;5005291;28;20284;-71
2023/06/10 06:08:07;;;;;;;12.70;8.35;;;;;;;18.67;83.35;93594.28;5005150;28;20399;-72
2023/06/10 06:10:34;;;;;;;18.88;8.98;;;;;;;18.72;84.46;93599.34;5004951;28;20300;-73
2023/06/10 06:13:00;;;;;;;18.23;8.77;;;;;;;18.68;83.53;93602.00;5004928;28;20054;-73
2023/06/10 06:15:25;;;;;;;17.23;7.70;;;;;;;18.80;83.58;93590.97;5005324;28;20050;-72
2023/06/10 06:17:52;;;;;;;18.98;8.82;;;;;;;18.93;84.54;93590.69;5005019;28;20027;-72
2023/06/10 06:20:18;;;;;;;17.63;10.52;;;;;;;19.10;84.31;93590.06;5005008;28;20026;-73
2023/06/10 06:22:44;;;;;;;13.88;8.20;;;;;;;19.28;82.97;93587.53;5004758;28;20029;-73
2023/06/10 06:25:09;;;;;;;12.20;8.20;;;;;;;19.42;81.50;93578.75;5005113;28;20018;-72
2023/06/10 06:27:34;;;;;;;12.27;7.50;;;;;;;19.55;81.08;93581.91;5005018;28;20022;-81
2023/06/10 06:30:00;;;;;;;10.48;7.72;;;;;;;19.64;78.97;93593.16;4987407;28;20018;-81
2023/06/10 06:32:27;;;;;;;11.98;7.78;;;;;;;19.70;77.59;93594.38;4987599;28;20090;-82
2023/06/10 06:34:54;;;;;;;10.50;8.25;;;;;;;19.73;77.58;93584.75;4987606;28;20050;-80
2023/06/10 06:37:23;;;;;;;14.85;7.95;;;;;;;19.67;76.09;93591.66;5004729;28;20049;-81
2023/06/10 06:39:53;;;;;;;12.35;7.70;;;;;;;19.61;76.77;93593.91;5004554;28;20019;-81
2023/06/10 06:42:18;;;;;;;17.85;9.27;;;;;;;19.55;77.06;93590.03;5004765;28;20090;-81
2023/06/10 06:44:44;;;;;;;16.35;7.88;;;;;;;19.49;76.84;93586.88;5004687;28;20038;-81
2023/06/10 06:47:11;;;;;;;16.73;7.68;;;;;;;19.44;76.81;93588.03;5004372;28;20248;-80
2023/06/10 06:49:37;;;;;;;13.05;7.65;;;;;;;19.49;76.90;93575.31;5004264;28;20097;-81
2023/06/10 06:52:02;;;;;;;13.93;7.47;;;;;;;19.46;77.66;93584.94;5004469;28;20026;-80
2023/06/10 06:54:29;;;;;;;18.50;7.35;;;;;;;19.49;77.51;93583.41;5004462;28;20033;-80
2023/06/10 06:56:54;;;;;;;18.48;7.72;;;;;;;19.49;76.93;93584.19;4987144;28;20026;-80
2023/06/10 06:59:19;;;;;;;13.35;6.60;;;;;;;19.56;75.54;93580.75;5004322;28;20030;-82
2023/06/10 07:01:46;;;;;;;11.30;6.53;;;;;;;19.59;76.72;93571.91;5004402;28;20026;-81
2023/06/10 07:04:12;;;;;;;14.73;7.13;;;;;;;19.43;76.40;93574.88;5004155;28;20026;-82
2023/06/10 07:06:38;;;;;;;12.02;7.18;;;;;;;19.60;76.37;93574.22;5004293;28;20256;-81
2023/06/10 07:09:04;;;;;;;13.25;7.30;;;;;;;19.68;76.13;93576.97;5004188;28;20030;-81
2023/06/10 07:11:30;;;;;;;16.00;6.82;;;;;;;19.74;75.80;93570.88;5004099;28;20117;-81
2023/06/10 07:13:56;;;;;;;9.27;5.22;;;;;;;19.78;72.60;93577.06;4986905;28;20342;-80
2023/06/10 07:16:21;;;;;;;12.55;5.57;;;;;;;19.87;72.35;93574.03;5004152;28;20320;-80
2023/06/10 07:18:47;;;;;;;14.00;6.18;;;;;;;19.95;71.62;93567.50;5003984;28;20107;-79
2023/06/10 07:21:12;;;;;;;26.30;6.68;;;;;;;20.06;71.20;93556.72;5004002;28;20018;-79
2023/06/10 07:23:41;;;;;;;9.55;3.80;;;;;;;20.16;67.84;93566.81;5003779;28;20057;-80
2023/06/10 07:26:07;;;;;;;15.35;5.53;;;;;;;20.21;68.66;93557.53;5003993;28;20049;-80
2023/06/10 07:28:33;;;;;;;15.07;5.88;;;;;;;20.26;69.85;93559.88;5003849;28;20018;-79
2023/06/10 07:30:58;;;;;;;15.30;5.78;;;;;;;20.44;69.52;93562.66;5003904;28;20022;-79
2023/06/10 07:33:23;;;;;;;15.38;5.20;;;;;;;20.59;68.96;93561.53;5003996;28;20030;-79
2023/06/10 07:35:49;;;;;;;7.38;4.60;;;;;;;20.72;67.67;93559.25;5003863;28;20121;-80
2023/06/10 07:38:14;;;;;;;13.10;5.30;;;;;;;20.80;66.38;93560.03;5003814;28;20024;-80
2023/06/10 07:40:40;;;;;;;15.75;4.80;;;;;;;20.87;66.61;93553.88;4986161;28;20211;-80
2023/06/10 07:43:05;;;;;;;10.95;4.72;;;;;;;20.93;66.99;93563.94;5003753;28;20025;-80
2023/06/10 07:45:31;;;;;;;17.98;5.18;;;;;;;20.95;66.63;93558.91;5003517;28;20025;-80
2023/06/10 07:47:56;;;;;;;15.60;5.32;;;;;;;20.99;66.04;93562.38;5003476;28;20018;-82
2023/06/10 07:50:22;;;;;;;10.10;5.70;;;;;;;21.09;67.46;93560.06;5003364;28;20025;-79
2023/06/10 07:52:47;;;;;;;18.02;4.90;;;;;;;21.08;65.26;93566.63;5003517;28;20022;-80
2023/06/10 07:55:12;;;;;;;9.70;5.32;;;;;;;21.07;65.06;93560.44;4986238;28;20034;-80
2023/06/10 07:57:38;;;;;;;16.35;4.40;;;;;;;21.03;64.03;93567.81;4986188;28;20101;-80
2023/06/10 08:00:05;;;;;;;11.07;4.82;;;;;;;21.00;64.56;93565.84;5003327;28;20022;-80
2023/06/10 08:02:31;;;;;;;12.73;4.07;;;;;;;21.02;62.88;93571.66;5003365;28;20255;-80
2023/06/10 08:04:56;;;;;;;12.90;5.28;;;;;;;20.98;63.52;93566.22;5003769;28;20026;-76
2023/06/10 08:07:22;;;;;;;20.05;7.53;;;;;;;20.92;63.44;93565.06;5003775;28;20030;-82
2023/06/10 08:09:47;;;;;;;10.60;4.43;;;;;;;20.88;62.45;93561.59;5003167;28;20038;-83
2023/06/10 08:12:13;;;;;;;8.15;3.70;;;;;;;20.76;60.37;93559.25;5003131;28;20320;-83
2023/06/10 08:14:38;;;;;;;13.20;3.60;;;;;;;20.74;60.82;93566.97;5003534;28;20300;-84
2023/06/10 08:17:06;;;;;;;7.40;4.00;;;;;;;20.80;60.71;93560.03;5003387;28;20038;-82
2023/06/10 08:19:32;;;;;;;11.85;3.70;;;;;;;20.85;59.52;93565.06;5006749;28;20093;-82
2023/06/10 08:22:30;;;;;;;8.68;3.10;;;;;;;20.77;59.54;93561.56;5007426;28;20041;-80
2023/06/10 08:24:56;;;;;;;9.07;3.47;;;;;;;20.84;60.22;93549.97;5006852;28;20049;-79
2023/06/10 08:27:21;;;;;;;8.63;3.45;;;;;;;20.96;60.40;93556.94;5006458;28;20399;-80
2023/06/10 08:29:47;;;;;;;12.00;4.57;;;;;;;20.97;60.91;93545.75;5006159;28;20101;-79
2023/06/10 08:32:12;;;;;;;9.60;4.25;;;;;;;21.06;59.81;93545.34;5006412;28;20032;-79
2023/06/10 08:34:38;;;;;;;9.25;3.53;;;;;;;21.08;58.24;93545.72;5006799;28;20029;-80
2023/06/10 08:37:04;;;;;;;20.75;4.40;;;;;;;21.15;57.75;93534.13;5005716;28;20064;-79
2023/06/10 08:39:32;;;;;;;12.63;3.90;;;;;;;21.20;57.20;93539.16;5003973;28;20026;-80
2023/06/10 08:42:16;;;;;;;11.30;3.30;;;;;;;21.15;56.22;93534.91;5003829;28;20435;-79
2023/06/10 08:44:42;;;;;;;5.78;3.28;;;;;;;21.14;54.40;93535.28;4986287;28;20022;-79
2023/06/10 08:47:14;;;;;;;11.70;3.33;;;;;;;21.19;54.36;93543.81;5003796;28;20022;-80
2023/06/10 08:49:43;;;;;;;6.53;2.90;;;;;;;21.36;54.01;93533.34;5004342;28;20030;-80
2023/06/10 08:52:13;;;;;;;12.23;3.03;;;;;;;21.45;51.18;93533.72;4987269;28;20022;-79
2023/06/10 08:54:43;;;;;;;14.85;3.05;;;;;;;21.51;51.10;93532.16;5006633;28;20029;-79
2023/06/10 08:57:08;;;;;;;8.85;3.50;;;;;;;21.61;52.20;93525.19;5006596;28;20294;-79
2023/06/10 08:59:34;;;;;;;11.00;3.47;;;;;;;21.76;53.49;93524.00;5006621;28;20081;-80
2023/06/10 09:02:02;;;;;;;4.70;2.40;;;;;;;21.91;50.43;93515.81;5006540;28;20081;-80
2023/06/10 09:04:28;;;;;;;7.30;2.47;;;;;;;21.97;50.67;93519.66;5006561;28;20026;-79
2023/06/10 09:06:55;;;;;;;10.30;2.70;;;;;;;21.98;51.66;93521.97;5006424;28;20022;-79
2023/06/10 09:09:22;;;;;;;4.78;2.47;;;;;;;22.06;51.99;93516.50;5006235;28;20026;-80
2023/06/10 09:11:48;;;;;;;8.90;3.47;;;;;;;22.10;51.17;93515.31;5006053;28;20096;-80
2023/06/10 09:14:14;;;;;;;9.65;3.00;;;;;;;22.27;50.95;93515.66;5006337;28;20086;-79
2023/06/10 09:16:40;;;;;;;8.88;3.10;;;;;;;22.32;50.72;93507.13;4988739;28;20335;-80
2023/06/10 09:19:09;;;;;;;5.88;2.97;;;;;;;22.42;50.79;93512.47;5005988;28;20263;-79
2023/06/10 09:21:38;;;;;;;5.28;2.78;;;;;;;22.52;49.71;93515.53;5006033;28;20316;-79
2023/06/10 09:24:05;;;;;;;9.85;2.70;;;;;;;22.58;49.73;93513.94;5005728;28;20338;-80
2023/06/10 09:26:30;;;;;;;5.10;2.83;;;;;;;22.62;50.57;93509.28;5005819;28;20057;-80
2023/06/10 09:29:08;;;;;;;5.13;3.45;;;;;;;22.61;49.38;93508.50;5005747;28;20034;-80
2023/06/10 09:31:35;;;;;;;6.22;2.58;;;;;;;22.60;49.26;93508.91;5005389;28;20224;-80
2023/06/10 09:34:13;;;;;;;12.57;3.58;;;;;;;22.68;48.55;93504.97;5005785;28;20037;-79
2023/06/10 09:36:40;;;;;;;7.78;3.42;;;;;;;22.74;49.63;93506.09;5005302;28;20026;-80
2023/06/10 09:39:17;;;;;;;9.55;3.28;;;;;;;22.88;49.80;93494.34;5005859;28;20034;-79
2023/06/10 09:41:44;;;;;;;8.10;3.25;;;;;;;23.00;49.40;93495.81;5005826;28;20220;-79
2023/06/10 09:44:17;;;;;;;6.45;3.78;;;;;;;23.04;48.69;93496.56;5005721;28;20279;-80
2023/06/10 09:46:46;;;;;;;10.98;3.25;;;;;;;23.05;48.71;93498.09;5005074;28;20098;-79
2023/06/10 09:49:11;;;;;;;6.85;3.75;;;;;;;23.23;48.21;93492.53;5005481;28;20098;-79
2023/06/10 09:51:37;;;;;;;5.47;3.28;;;;;;;23.31;47.23;93495.94;5005668;28;20022;-80
2023/06/10 09:54:03;;;;;;;6.88;3.15;;;;;;;23.41;47.87;93487.69;5005510;28;20100;-80
2023/06/10 09:56:35;;;;;;;9.27;3.55;;;;;;;23.54;46.36;93493.38;5005545;28;20213;-79
2023/06/10 09:59:01;;;;;;;7.78;3.33;;;;;;;23.52;46.00;93486.81;5005394;28;20022;-80
2023/06/10 10:01:27;;;;;;;8.98;3.67;;;;;;;23.51;46.30;93479.81;5005416;28;20027;-80
2023/06/10 10:03:52;;;;;;;9.32;3.03;;;;;;;23.66;46.77;93475.78;5005350;28;20029;-80
2023/06/10 10:06:19;;;;;;;8.27;3.55;;;;;;;23.83;46.79;93474.84;5005248;28;20069;-80
2023/06/10 10:08:46;;;;;;;9.93;3.15;;;;;;;24.10;49.07;93476.84;5005347;28;20030;-79
2023/06/10 10:11:12;;;;;;;7.55;2.90;;;;;;;24.34;47.26;93463.28;5005120;28;20030;-80
2023/06/10 10:13:39;;;;;;;7.35;3.28;;;;;;;24.55;45.84;93467.72;5005176;28;20085;-80
2023/06/10 10:16:11;;;;;;;12.57;3.40;;;;;;;24.78;46.52;93461.53;5005069;28;20026;-79
2023/06/10 10:18:41;;;;;;;4.60;2.63;;;;;;;24.95;43.21;93460.47;5004873;28;20038;-80
2023/06/10 10:21:13;;;;;;;5.68;3.05;;;;;;;25.03;41.17;93459.16;5005238;28;20030;-79
2023/06/10 10:23:53;;;;;;;12.63;3.25;;;;;;;25.03;41.69;93456.44;5004900;28;20022;-80
2023/06/10 10:26:20;;;;;;;3.70;2.45;;;;;;;25.07;43.03;93452.88;5004807;28;20030;-80
2023/06/10 10:29:05;;;;;;;8.45;2.42;;;;;;;25.21;42.90;93458.09;5004704;28;20169;-80
2023/06/10 10:31:34;;;;;;;6.18;3.03;;;;;;;25.43;43.30;93451.09;5004768;28;20022;-80
2023/06/10 10:34:06;;;;;;;4.13;2.72;;;;;;;25.70;42.95;93455.66;5004665;28;20022;-79
2023/06/10 10:36:32;;;;;;;6.15;2.67;;;;;;;25.92;42.91;93463.47;5004797;28;20089;-79
2023/06/10 10:38:58;;;;;;;8.20;2.92;;;;;;;26.18;40.95;93457.06;5004490;28;20026;-79
2023/06/10 10:41:26;;;;;;;5.40;2.88;;;;;;;26.30;38.27;93452.91;5004435;28;20228;-79
2023/06/10 10:43:52;;;;;;;5.28;2.75;;;;;;;26.22;38.27;93457.75;5004555;28;20034;-79
2023/06/10 10:46:18;;;;;;;8.88;2.83;;;;;;;26.01;39.06;93448.06;5004223;28;20054;-79
2023/06/10 10:48:44;;;;;;;4.07;2.70;;;;;;;25.91;39.17;93443.59;5004325;28;20029;-79
2023/06/10 10:51:11;;;;;;;10.40;2.63;;;;;;;26.01;41.15;93436.34;5004345;28;20045;-79
2023/06/10 10:53:40;;;;;;;9.43;2.55;;;;;;;26.21;40.42;93444.50;5004146;28;20391;-79
2023/06/10 10:56:07;;;;;;;7.13;2.72;;;;;;;26.39;39.60;93438.66;5004233;28;20018;-79
2023/06/10 10:58:32;;;;;;;7.63;3.53;;;;;;;26.61;39.74;93434.28;5004353;28;20030;-79
2023/06/10 11:00:58;;;;;;;9.73;2.95;;;;;;;26.88;37.80;93438.72;5004187;28;20216;-79
2023/06/10 11:03:28;;;;;;;9.65;2.72;;;;;;;26.94;37.70;93436.25;4986960;28;20098;-79
2023/06/10 11:05:57;;;;;;;6.22;2.33;;;;;;;27.05;38.68;93433.25;5004084;28;20054;-79
2023/06/10 11:08:43;;;;;;;8.40;2.55;;;;;;;27.23;38.08;93433.59;5004022;28;20148;-79
2023/06/10 11:11:20;;;;;;;3.47;2.30;;;;;;;27.32;37.28;93425.56;4996847;28;20231;-79
2023/06/10 11:14:04;;;;;;;8.65;3.25;;;;;;;27.33;36.92;93420.84;5003991;28;20032;-79
2023/06/10 11:16:38;;;;;;;7.25;2.50;;;;;;;27.25;35.72;93420.25;5003627;28;20105;-79
2023/06/10 11:19:03;;;;;;;8.82;3.15;;;;;;;27.22;35.96;93408.19;5003507;28;20068;-79
2023/06/10 11:21:29;;;;;;;5.78;2.53;;;;;;;27.08;34.67;93411.28;5003835;28;20022;-79
2023/06/10 11:24:00;;;;;;;5.35;2.03;;;;;;;27.02;34.99;93402.06;5004001;28;20102;-79
2023/06/10 11:26:31;;;;;;;8.13;2.70;;;;;;;26.97;35.57;93408.81;5003749;28;20022;-79
2023/06/10 11:28:57;;;;;;;6.63;2.15;;;;;;;27.07;35.20;93398.03;5003842;28;20030;-80